createdAt,value
2019-06-20T00:01:13.553Z,27.20
2019-06-20T00:03:45.418Z,27.20
2019-06-20T00:06:17.233Z,27.30
2019-06-20T00:08:48.847Z,27.30
2019-06-20T00:11:20.660Z,27.30
2019-06-20T00:13:52.452Z,27.30
2019-06-20T00:16:24.070Z,27.40
2019-06-20T00:18:55.875Z,27.40
2019-06-20T00:21:27.769Z,27.40
2019-06-20T00:23:59.077Z,27.50
2019-06-20T00:26:30.794Z,27.50
2019-06-20T00:29:02.385Z,27.60
2019-06-20T00:31:33.994Z,27.60
2019-06-20T00:34:05.142Z,27.60
2019-06-20T00:36:36.087Z,27.70
2019-06-20T00:39:10.072Z,27.70
2019-06-20T00:41:41.206Z,27.80
2019-06-20T00:44:11.961Z,27.80
2019-06-20T00:46:43.052Z,27.90
2019-06-20T00:49:14.180Z,27.90
2019-06-20T00:51:45.253Z,28.00
2019-06-20T00:54:16.326Z,28.00
2019-06-20T00:56:47.554Z,28.10
2019-06-20T00:59:18.437Z,28.20
2019-06-20T01:01:49.790Z,28.20
2019-06-20T01:04:20.720Z,28.30
2019-06-20T01:06:51.496Z,28.30
2019-06-20T01:09:22.653Z,28.40
2019-06-20T01:11:53.486Z,28.50
2019-06-20T01:14:24.285Z,28.50
2019-06-20T01:16:55.730Z,28.60
2019-06-20T01:19:26.792Z,28.70
2019-06-20T01:21:57.750Z,28.70
2019-06-20T01:24:28.916Z,28.70
2019-06-20T01:26:59.739Z,28.80
2019-06-20T01:29:30.530Z,28.90
2019-06-20T01:32:01.449Z,28.90
2019-06-20T01:34:34.725Z,29.00
2019-06-20T01:37:05.753Z,29.10
2019-06-20T01:39:36.960Z,29.20
2019-06-20T01:42:07.652Z,29.20
2019-06-20T01:44:38.393Z,29.30
2019-06-20T01:47:09.128Z,29.40
2019-06-20T01:49:39.825Z,29.40
2019-06-20T01:52:13.577Z,29.50
2019-06-20T01:54:45.109Z,29.50
2019-06-20T01:57:16.222Z,29.60
2019-06-20T01:59:47.605Z,29.70
2019-06-20T02:02:18.620Z,29.80
2019-06-20T02:04:49.334Z,29.80
2019-06-20T02:07:20.768Z,29.90
2019-06-20T02:09:51.981Z,30.00
2019-06-20T02:12:22.758Z,30.10
2019-06-20T02:14:53.745Z,30.20
2019-06-20T02:17:25.004Z,30.20
2019-06-20T02:19:55.637Z,30.30
2019-06-20T02:22:26.630Z,30.40
2019-06-20T02:24:57.495Z,30.50
2019-06-20T02:27:28.021Z,30.60
2019-06-20T02:29:59.168Z,30.60
2019-06-20T02:32:30.167Z,30.70
2019-06-20T02:35:01.150Z,30.70
2019-06-20T02:37:31.980Z,30.70
2019-06-20T02:40:05.395Z,30.70
2019-06-20T02:42:36.687Z,30.80
2019-06-20T02:45:08.377Z,30.90
2019-06-20T02:47:39.328Z,31.00
2019-06-20T02:50:10.334Z,31.10
2019-06-20T02:52:40.772Z,31.10
2019-06-20T02:55:11.896Z,31.20
2019-06-20T02:57:43.081Z,31.30
2019-06-20T03:00:14.602Z,31.40
2019-06-20T03:02:45.567Z,31.50
2019-06-20T03:05:16.780Z,31.60
2019-06-20T03:07:47.583Z,31.70
2019-06-20T03:10:18.426Z,31.80
2019-06-20T03:12:49.614Z,32.00
2019-06-20T03:15:20.538Z,32.10
2019-06-20T03:17:51.636Z,32.10
2019-06-20T03:20:22.842Z,32.20
2019-06-20T03:22:53.633Z,32.30
2019-06-20T03:25:24.445Z,32.40
2019-06-20T03:27:55.389Z,32.40
2019-06-20T03:30:26.843Z,32.50
2019-06-20T03:32:57.576Z,32.50
2019-06-20T03:35:28.489Z,32.60
2019-06-20T03:37:59.447Z,32.60
2019-06-20T03:40:30.314Z,32.60
2019-06-20T03:43:00.656Z,32.70
2019-06-20T03:45:31.828Z,32.70
2019-06-20T03:48:02.559Z,32.80
2019-06-20T03:50:34.802Z,32.90
2019-06-20T03:53:05.625Z,33.00
2019-06-20T03:55:36.627Z,33.20
2019-06-20T03:58:08.117Z,33.30
2019-06-20T04:00:40.804Z,33.40
2019-06-20T04:03:11.794Z,33.50
2019-06-20T04:05:42.921Z,33.50
2019-06-20T04:20:35.291Z,33.60
2019-06-20T04:23:06.010Z,33.60
2019-06-20T04:25:37.034Z,33.60
2019-06-20T04:28:07.959Z,33.60
2019-06-20T04:30:38.897Z,33.60
2019-06-20T04:33:09.442Z,33.60
2019-06-20T04:35:40.735Z,33.60
2019-06-20T04:38:11.520Z,33.60
2019-06-20T04:40:42.391Z,33.70
2019-06-20T04:43:13.527Z,33.80
2019-06-20T04:45:45.544Z,33.80
2019-06-20T04:48:16.261Z,33.90
2019-06-20T04:50:48.988Z,34.00
2019-06-20T04:53:19.750Z,34.10
2019-06-20T04:55:50.443Z,34.30
2019-06-20T04:58:21.227Z,34.40
2019-06-20T05:00:52.170Z,34.50
2019-06-20T05:03:22.739Z,34.70
2019-06-20T05:05:53.932Z,34.80
2019-06-20T05:08:24.849Z,34.90
2019-06-20T05:10:55.740Z,35.00
2019-06-20T05:13:26.863Z,34.90
2019-06-20T05:15:58.406Z,34.90
2019-06-20T05:18:29.570Z,34.90
2019-06-20T05:21:00.901Z,34.90
2019-06-20T05:23:32.048Z,34.90
2019-06-20T05:26:03.230Z,34.90
2019-06-20T05:28:34.330Z,35.00
2019-06-20T05:31:05.330Z,35.10
2019-06-20T05:33:36.088Z,35.20
2019-06-20T05:36:07.082Z,35.20
2019-06-20T05:38:37.729Z,35.30
2019-06-20T05:41:08.696Z,35.40
2019-06-20T05:43:39.766Z,35.50
2019-06-20T05:46:11.311Z,35.70
2019-06-20T05:48:43.223Z,35.80
2019-06-20T05:51:14.853Z,35.90
2019-06-20T05:53:46.724Z,36.10
2019-06-20T05:56:17.706Z,36.20
2019-06-20T05:58:48.782Z,36.30
2019-06-20T06:01:19.935Z,36.40
2019-06-20T06:03:51.828Z,36.30
2019-06-20T06:06:22.547Z,36.20
2019-06-20T06:08:53.377Z,36.20
2019-06-20T06:11:24.046Z,36.20
2019-06-20T06:13:56.257Z,36.40
2019-06-20T06:16:30.291Z,36.50
2019-06-20T06:19:01.122Z,36.50
2019-06-20T06:21:31.947Z,36.40
2019-06-20T06:24:03.055Z,36.30
2019-06-20T06:26:34.510Z,36.30
2019-06-20T06:29:05.395Z,36.30
2019-06-20T06:31:36.150Z,36.30
2019-06-20T06:34:06.763Z,36.30
2019-06-20T06:36:37.534Z,36.20
2019-06-20T06:39:10.859Z,36.30
2019-06-20T06:41:41.587Z,36.40
2019-06-20T06:44:12.756Z,36.60
2019-06-20T06:46:52.102Z,36.70
2019-06-20T06:49:16.065Z,36.90
2019-06-20T06:51:47.585Z,37.00
2019-06-20T06:54:18.374Z,37.10
2019-06-20T06:56:49.314Z,37.20
2019-06-20T06:59:20.363Z,37.20
2019-06-20T07:01:52.214Z,37.30
2019-06-20T07:04:23.222Z,37.40
2019-06-20T07:06:54.247Z,37.60
2019-06-20T07:09:25.590Z,37.70
2019-06-20T07:11:56.355Z,37.70
2019-06-20T07:14:27.321Z,37.70
2019-06-20T07:17:00.876Z,37.60
2019-06-20T07:19:31.752Z,37.50
2019-06-20T07:22:02.625Z,37.40
2019-06-20T07:24:33.832Z,37.30
2019-06-20T07:27:05.119Z,37.20
2019-06-20T07:29:36.146Z,37.10
2019-06-20T07:32:07.478Z,37.10
2019-06-20T07:34:38.902Z,37.10
2019-06-20T07:37:10.571Z,37.10
2019-06-20T07:39:41.499Z,37.10
2019-06-20T07:42:12.374Z,37.20
2019-06-20T07:44:43.274Z,37.40
2019-06-20T07:47:17.978Z,37.50
2019-06-20T07:49:46.621Z,37.50
2019-06-20T07:52:17.833Z,37.60
2019-06-20T07:54:49.028Z,37.70
2019-06-20T07:57:20.409Z,37.70
2019-06-20T07:59:51.525Z,37.90
2019-06-20T08:02:22.716Z,37.90
2019-06-20T08:04:53.635Z,38.00
2019-06-20T08:07:24.795Z,38.00
2019-06-20T08:09:55.572Z,38.00
2019-06-20T08:12:26.427Z,37.90
2019-06-20T08:15:11.189Z,37.80
2019-06-20T08:17:35.337Z,37.80
2019-06-20T08:20:02.519Z,37.90
2019-06-20T08:22:33.760Z,37.90
2019-06-20T08:25:05.403Z,37.90
2019-06-20T08:27:37.759Z,37.90
2019-06-20T08:30:08.535Z,37.90
2019-06-20T08:32:39.525Z,38.10
2019-06-20T08:35:10.957Z,38.10
2019-06-20T08:37:42.554Z,38.10
2019-06-20T08:40:13.745Z,38.10
2019-06-20T08:42:44.982Z,38.10
2019-06-20T08:45:15.976Z,38.10
2019-06-20T08:47:46.859Z,38.10
2019-06-20T08:50:17.727Z,38.20
2019-06-20T08:52:48.087Z,38.20
2019-06-20T08:55:21.405Z,38.20
2019-06-20T08:57:51.546Z,38.30
2019-06-20T09:00:22.255Z,38.20
2019-06-20T09:02:55.648Z,38.20
2019-06-20T09:05:27.373Z,38.10
2019-06-20T09:10:34.622Z,38.10
2019-06-20T09:13:09.922Z,38.10
2019-06-20T09:15:41.020Z,38.20
2019-06-20T09:18:12.101Z,38.30
2019-06-20T09:20:43.622Z,38.30
2019-06-20T09:23:14.706Z,38.30
2019-06-20T09:25:46.333Z,38.40
2019-06-20T09:28:17.212Z,38.40
2019-06-20T09:30:48.138Z,38.40
2019-06-20T09:33:19.265Z,38.30
2019-06-20T09:35:52.201Z,38.20
2019-06-20T09:38:23.295Z,38.10
2019-06-20T09:40:54.857Z,37.90
2019-06-20T09:43:27.874Z,37.70
2019-06-20T09:45:58.448Z,37.50
2019-06-20T09:48:29.171Z,37.10
2019-06-20T09:51:00.228Z,36.70
2019-06-20T09:53:31.254Z,36.50
2019-06-20T09:56:02.584Z,36.20
2019-06-20T09:58:33.260Z,36.00
2019-06-20T10:01:04.441Z,35.80
2019-06-20T10:03:35.460Z,35.80
2019-06-20T10:06:13.717Z,35.70
2019-06-20T10:08:39.131Z,35.70
2019-06-20T10:11:10.153Z,35.70
2019-06-20T10:13:41.346Z,35.70
2019-06-20T10:16:12.265Z,35.80
2019-06-20T10:18:43.181Z,35.90
2019-06-20T10:21:14.374Z,36.00
2019-06-20T10:23:46.176Z,36.10
2019-06-20T10:26:18.225Z,36.10
2019-06-20T10:28:49.344Z,36.20
2019-06-20T10:31:20.289Z,36.20
2019-06-20T10:33:50.996Z,36.20
2019-06-20T10:36:22.198Z,36.20
2019-06-20T10:38:53.523Z,36.20
2019-06-20T10:41:24.620Z,36.10
2019-06-20T10:43:56.630Z,36.00
2019-06-20T10:46:27.766Z,36.00
2019-06-20T10:48:58.600Z,35.90
2019-06-20T10:51:31.206Z,35.90
2019-06-20T10:54:01.987Z,35.80
2019-06-20T10:56:32.884Z,35.80
2019-06-20T10:59:03.996Z,35.80
2019-06-20T11:01:34.792Z,35.70
2019-06-20T11:04:05.708Z,35.60
2019-06-20T11:06:39.890Z,35.60
2019-06-20T11:09:10.611Z,35.50
2019-06-20T11:11:42.999Z,35.50
2019-06-20T11:14:14.302Z,35.40
2019-06-20T11:16:45.367Z,35.40
2019-06-20T11:19:16.377Z,35.40
2019-06-20T11:21:47.780Z,35.30
2019-06-20T11:24:18.994Z,35.30
2019-06-20T11:26:49.901Z,35.30
2019-06-20T11:29:21.319Z,35.30
2019-06-20T11:31:52.548Z,35.30
2019-06-20T11:34:23.303Z,35.20
2019-06-20T11:39:25.652Z,35.10
2019-06-20T11:41:56.937Z,35.10
2019-06-20T11:44:28.257Z,35.10
2019-06-20T11:47:00.244Z,35.10
2019-06-20T11:49:31.179Z,35.00
2019-06-20T11:52:02.154Z,34.90
2019-06-20T11:54:34.472Z,34.80
2019-06-20T11:57:05.465Z,34.80
2019-06-20T11:59:36.209Z,34.70
2019-06-20T12:02:07.107Z,34.70
2019-06-20T12:04:38.218Z,34.60
2019-06-20T12:07:10.313Z,34.50
2019-06-20T12:09:41.896Z,34.40
2019-06-20T12:12:12.900Z,34.30
2019-06-20T12:14:44.446Z,34.20
2019-06-20T12:17:15.911Z,34.10
2019-06-20T12:19:46.772Z,34.00
2019-06-20T12:22:17.285Z,33.90
2019-06-20T12:24:48.894Z,33.80
2019-06-20T12:27:19.823Z,33.80
2019-06-20T12:29:50.331Z,33.70
2019-06-20T12:32:22.830Z,33.60
2019-06-20T12:34:53.493Z,33.60
2019-06-20T12:37:24.238Z,33.40
2019-06-20T12:39:57.242Z,33.40
2019-06-20T12:42:28.139Z,33.40
2019-06-20T12:44:59.292Z,33.30
2019-06-20T12:47:30.776Z,33.30
2019-06-20T12:50:01.532Z,33.30
2019-06-20T12:52:32.704Z,33.20
2019-06-20T12:55:04.227Z,33.10
2019-06-20T12:57:35.327Z,33.00
2019-06-20T13:00:08.886Z,33.00
2019-06-20T13:02:41.947Z,32.90
2019-06-20T13:05:14.485Z,32.90
2019-06-20T13:07:46.373Z,32.80
2019-06-20T13:10:18.128Z,32.80
2019-06-20T13:12:48.995Z,32.70
2019-06-20T13:15:21.396Z,32.70
2019-06-20T13:17:52.040Z,32.60
2019-06-20T13:20:22.957Z,32.60
2019-06-20T13:22:54.490Z,32.50
2019-06-20T13:25:25.353Z,32.40
2019-06-20T13:27:56.467Z,32.40
2019-06-20T13:30:28.176Z,32.30
2019-06-20T13:32:59.129Z,32.30
2019-06-20T13:35:30.083Z,32.30
2019-06-20T13:38:00.939Z,32.20
2019-06-20T13:40:32.099Z,32.20
2019-06-20T13:43:03.208Z,32.10
2019-06-20T13:45:34.220Z,32.10
2019-06-20T13:48:04.909Z,32.00
2019-06-20T13:50:35.516Z,32.00
2019-06-20T13:53:06.610Z,31.90
2019-06-20T13:55:37.605Z,31.90
2019-06-20T13:58:08.717Z,31.80
2019-06-20T14:00:42.872Z,31.80
2019-06-20T14:03:12.319Z,31.70
2019-06-20T14:05:45.358Z,31.70
2019-06-20T14:08:16.294Z,31.70
2019-06-20T14:10:47.660Z,31.60
2019-06-20T14:13:19.855Z,31.60
2019-06-20T14:15:51.259Z,31.60
2019-06-20T14:18:22.370Z,31.50
2019-06-20T14:20:53.421Z,31.50
2019-06-20T14:23:24.615Z,31.50
2019-06-20T14:25:56.291Z,31.60
2019-06-20T14:28:27.924Z,31.60
2019-06-20T14:30:58.860Z,31.60
2019-06-20T14:33:31.929Z,31.50
2019-06-20T14:36:02.238Z,31.50
2019-06-20T14:38:33.069Z,31.50
2019-06-20T14:41:03.926Z,31.50
2019-06-20T14:43:35.164Z,31.40
2019-06-20T14:46:07.737Z,31.40
2019-06-20T14:48:39.404Z,31.40
2019-06-20T14:51:10.390Z,31.40
2019-06-20T14:53:41.245Z,31.30
2019-06-20T14:56:12.704Z,31.30
2019-06-20T14:58:44.858Z,31.30
2019-06-20T15:01:15.983Z,31.30
2019-06-20T15:03:48.989Z,31.30
2019-06-20T15:06:20.575Z,31.20
2019-06-20T15:09:00.258Z,31.20
2019-06-20T15:11:24.463Z,31.20
2019-06-20T15:13:55.508Z,31.20
2019-06-20T15:16:26.586Z,31.10
2019-06-20T15:18:57.625Z,31.10
2019-06-20T15:21:28.362Z,31.10
2019-06-20T15:23:59.130Z,31.10
2019-06-20T15:26:30.534Z,31.00
2019-06-20T15:29:01.784Z,31.00
2019-06-20T15:31:32.676Z,31.00
2019-06-20T15:34:03.910Z,31.00
2019-06-20T15:36:34.766Z,30.90
2019-06-20T15:39:07.292Z,30.80
2019-06-20T15:41:38.655Z,30.80
2019-06-20T15:44:10.340Z,30.80
2019-06-20T15:46:41.433Z,30.80
2019-06-20T15:49:16.006Z,30.80
2019-06-20T15:51:45.287Z,30.80
2019-06-20T15:54:15.871Z,30.80
2019-06-20T15:56:47.288Z,30.80
2019-06-20T15:59:18.347Z,30.80
2019-06-20T16:01:49.390Z,30.70
2019-06-20T16:04:20.307Z,30.70
2019-06-20T16:06:51.331Z,30.70
2019-06-20T16:09:22.456Z,30.70
2019-06-20T16:11:53.542Z,30.70
2019-06-20T16:14:24.640Z,30.70
2019-06-20T16:16:55.657Z,30.70
2019-06-20T16:19:26.797Z,30.70
2019-06-20T16:21:58.023Z,30.60
2019-06-20T16:24:28.840Z,30.60
2019-06-20T16:26:59.811Z,30.60
2019-06-20T16:29:31.038Z,30.50
2019-06-20T16:32:01.573Z,30.50
2019-06-20T16:34:32.519Z,30.50
2019-06-20T16:37:10.231Z,30.50
2019-06-20T16:39:37.060Z,30.50
2019-06-20T16:42:08.603Z,30.50
2019-06-20T16:44:39.923Z,30.50
2019-06-20T16:47:10.856Z,30.50
2019-06-20T16:49:41.996Z,30.50
2019-06-20T16:52:12.723Z,30.50
2019-06-20T16:54:43.806Z,30.50
2019-06-20T16:57:14.784Z,30.50
2019-06-20T16:59:46.129Z,30.50
2019-06-20T17:02:17.149Z,30.50
2019-06-20T17:04:47.961Z,30.50
2019-06-20T17:07:18.765Z,30.50
2019-06-20T17:09:49.870Z,30.50
2019-06-20T17:12:21.190Z,30.50
2019-06-20T17:14:52.127Z,30.50
2019-06-20T17:17:23.172Z,30.50
2019-06-20T17:19:54.277Z,30.50
2019-06-20T17:22:25.304Z,30.40
2019-06-20T17:24:55.946Z,30.40
2019-06-20T17:27:26.872Z,30.40
2019-06-20T17:29:57.546Z,30.30
2019-06-20T17:32:28.605Z,30.30
2019-06-20T17:34:59.634Z,30.30
2019-06-20T17:37:30.619Z,30.30
2019-06-20T17:40:01.609Z,30.30
2019-06-20T17:42:32.663Z,30.30
2019-06-20T17:45:03.575Z,30.20
2019-06-20T17:47:34.116Z,30.20
2019-06-20T17:50:06.465Z,30.20
2019-06-20T17:52:37.216Z,30.20
2019-06-20T17:55:08.342Z,30.10
2019-06-20T17:57:39.480Z,30.10
2019-06-20T18:00:12.216Z,30.10
2019-06-20T18:02:42.962Z,30.10
2019-06-20T18:05:13.781Z,30.10
2019-06-20T18:07:44.391Z,30.10
2019-06-20T18:10:15.793Z,30.00
2019-06-20T18:12:46.023Z,30.00
2019-06-20T18:15:16.609Z,29.90
2019-06-20T18:17:47.571Z,30.00
2019-06-20T18:20:19.434Z,30.00
2019-06-20T18:22:50.424Z,29.90
2019-06-20T18:25:21.021Z,29.90
2019-06-20T18:27:52.070Z,29.90
2019-06-20T18:30:25.565Z,29.80
2019-06-20T18:32:56.910Z,29.80
2019-06-20T18:35:27.999Z,29.80
2019-06-20T18:37:58.727Z,29.70
2019-06-20T18:40:29.705Z,29.70
2019-06-20T18:43:00.353Z,29.70
2019-06-20T18:45:30.797Z,29.70
2019-06-20T18:48:02.065Z,29.70
2019-06-20T18:50:33.039Z,29.70
2019-06-20T18:53:04.151Z,29.60
2019-06-20T18:55:35.677Z,29.60
2019-06-20T18:58:07.447Z,29.60
2019-06-20T19:00:39.096Z,29.60
2019-06-20T19:03:10.883Z,29.60
2019-06-20T19:05:42.117Z,29.60
2019-06-20T19:08:13.535Z,29.60
2019-06-20T19:10:44.588Z,29.60
2019-06-20T19:13:15.992Z,29.50
2019-06-20T19:15:47.216Z,29.50
2019-06-20T19:18:18.037Z,29.40
2019-06-20T19:20:49.030Z,29.50
2019-06-20T19:23:19.967Z,29.40
2019-06-20T19:25:50.520Z,29.40
2019-06-20T19:28:21.660Z,29.40
2019-06-20T19:30:53.723Z,29.30
2019-06-20T19:33:24.770Z,29.30
2019-06-20T19:35:55.538Z,29.30
2019-06-20T19:38:26.544Z,29.30
2019-06-20T19:40:57.437Z,29.30
2019-06-20T19:43:27.910Z,29.20
2019-06-20T19:45:58.983Z,29.20
2019-06-20T19:48:29.980Z,29.20
2019-06-20T19:51:00.897Z,29.10
2019-06-20T19:53:32.422Z,29.00
2019-06-20T19:56:03.216Z,29.00
2019-06-20T19:58:34.246Z,29.00
2019-06-20T20:01:05.315Z,29.00
2019-06-20T20:03:36.366Z,29.00
2019-06-20T20:06:08.826Z,29.00
2019-06-20T20:08:39.933Z,28.90
2019-06-20T20:11:10.936Z,28.90
2019-06-20T20:13:41.864Z,28.80
2019-06-20T20:16:12.816Z,28.80
2019-06-20T20:18:45.366Z,28.80
2019-06-20T20:21:16.622Z,28.70
2019-06-20T20:23:47.748Z,28.60
2019-06-20T20:26:18.694Z,28.60
2019-06-20T20:28:49.455Z,28.50
2019-06-20T20:31:20.206Z,28.50
2019-06-20T20:33:51.060Z,28.50
2019-06-20T20:36:25.132Z,28.50
2019-06-20T20:38:53.747Z,28.50
2019-06-20T20:41:24.002Z,28.50
2019-06-20T20:43:54.863Z,28.50
2019-06-20T20:46:25.879Z,28.40
2019-06-20T20:48:56.814Z,28.40
2019-06-20T20:51:30.703Z,28.40
2019-06-20T20:54:02.129Z,28.40
2019-06-20T20:56:33.175Z,28.40
2019-06-20T20:59:04.095Z,28.40
2019-06-20T21:01:35.744Z,28.40
2019-06-20T21:04:07.092Z,28.40
2019-06-20T21:06:38.007Z,28.40
2019-06-20T21:09:09.592Z,28.30
2019-06-20T21:11:40.414Z,28.30
2019-06-20T21:14:11.501Z,28.30
2019-06-20T21:16:42.642Z,28.40
2019-06-20T21:19:15.047Z,28.30
2019-06-20T21:21:46.027Z,28.20
2019-06-20T21:24:18.563Z,28.20
2019-06-20T21:26:50.291Z,28.20
2019-06-20T21:29:21.086Z,28.10
2019-06-20T21:31:52.598Z,28.10
2019-06-20T21:34:23.872Z,28.00
2019-06-20T21:36:55.043Z,28.00
2019-06-20T21:39:26.102Z,28.00
2019-06-20T21:41:56.912Z,27.90
2019-06-20T21:44:28.157Z,27.90
2019-06-20T21:46:59.007Z,27.80
2019-06-20T21:49:30.099Z,27.70
2019-06-20T21:52:01.111Z,27.70
2019-06-20T21:54:31.930Z,27.60
2019-06-20T21:57:02.741Z,27.60
2019-06-20T21:59:33.698Z,27.60
2019-06-20T22:02:04.219Z,27.60
2019-06-20T22:04:34.874Z,27.60
2019-06-20T22:07:05.692Z,27.50
2019-06-20T22:09:37.145Z,27.50
2019-06-20T22:12:08.163Z,27.50
2019-06-20T22:14:38.993Z,27.50
2019-06-20T22:17:09.729Z,27.50
2019-06-20T22:19:40.217Z,27.50
2019-06-20T22:22:12.654Z,27.50
2019-06-20T22:24:43.362Z,27.60
2019-06-20T22:27:14.269Z,27.60
2019-06-20T22:29:45.061Z,27.60
2019-06-20T22:32:15.953Z,27.60
2019-06-20T22:34:46.796Z,27.70
2019-06-20T22:37:17.643Z,27.60
2019-06-20T22:39:48.397Z,27.70
2019-06-20T22:42:18.955Z,27.70
2019-06-20T22:44:49.971Z,27.70
2019-06-20T22:47:20.606Z,27.70
2019-06-20T22:49:51.654Z,27.60
2019-06-20T22:52:22.502Z,27.70
2019-06-20T22:54:53.215Z,27.70
2019-06-20T22:57:24.313Z,27.60
2019-06-20T22:59:55.284Z,27.60
2019-06-20T23:02:26.211Z,27.60
2019-06-20T23:04:57.556Z,27.50
2019-06-20T23:07:28.589Z,27.50
2019-06-20T23:10:09.922Z,27.50
2019-06-20T23:12:32.796Z,27.50
2019-06-20T23:15:03.524Z,27.50
2019-06-20T23:17:34.510Z,27.50
2019-06-20T23:20:07.949Z,27.60
2019-06-20T23:22:40.374Z,27.60
2019-06-20T23:25:11.441Z,27.60
2019-06-20T23:27:42.317Z,27.60
2019-06-20T23:30:14.078Z,27.60
2019-06-20T23:32:45.527Z,27.70
2019-06-20T23:35:16.549Z,27.70
2019-06-20T23:37:47.935Z,27.70
2019-06-20T23:40:19.055Z,27.70
2019-06-20T23:42:50.223Z,27.70
2019-06-20T23:45:22.360Z,27.70
2019-06-20T23:47:53.780Z,27.70
2019-06-20T23:50:24.804Z,27.80
2019-06-20T23:52:56.917Z,27.80
2019-06-20T23:55:28.770Z,27.90
2019-06-20T23:57:59.630Z,27.90
